createdAt,value
2019-05-13T00:02:51.009Z,8.40
2019-05-13T00:07:45.098Z,8.40
2019-05-13T00:12:39.873Z,8.30
2019-05-13T00:17:33.900Z,8.20
2019-05-13T00:22:27.797Z,8.00
2019-05-13T00:27:23.469Z,8.00
2019-05-13T00:32:17.538Z,7.90
2019-05-13T00:37:11.850Z,7.80
2019-05-13T00:42:06.998Z,7.60
2019-05-13T00:47:00.801Z,7.60
2019-05-13T00:51:54.485Z,7.50
2019-05-13T00:56:48.403Z,7.40
2019-05-13T01:01:44.056Z,7.40
2019-05-13T01:06:38.421Z,7.30
2019-05-13T01:11:34.354Z,7.20
2019-05-13T01:16:27.937Z,7.20
2019-05-13T01:21:23.847Z,7.10
2019-05-13T01:26:17.463Z,7.10
2019-05-13T01:31:13.120Z,7.00
2019-05-13T01:36:06.584Z,7.00
2019-05-13T01:41:00.253Z,7.00
2019-05-13T01:45:54.106Z,6.80
2019-05-13T01:50:47.927Z,6.80
2019-05-13T01:55:44.043Z,6.70
2019-05-13T02:00:37.577Z,6.60
2019-05-13T02:05:33.651Z,6.40
2019-05-13T02:10:44.560Z,6.40
2019-05-13T02:15:38.460Z,6.40
2019-05-13T02:20:33.531Z,6.40
2019-05-13T02:25:27.436Z,6.40
2019-05-13T02:30:21.157Z,6.40
2019-05-13T02:35:15.048Z,6.30
2019-05-13T02:40:08.831Z,6.30
2019-05-13T02:45:03.709Z,6.30
2019-05-13T02:50:00.714Z,6.10
2019-05-13T02:54:53.475Z,6.10
2019-05-13T02:59:47.334Z,6.00
2019-05-13T03:04:43.475Z,5.80
2019-05-13T03:09:36.980Z,5.60
2019-05-13T03:14:32.421Z,5.50
2019-05-13T03:19:26.331Z,5.50
2019-05-13T03:24:22.788Z,5.40
2019-05-13T03:29:16.012Z,5.30
2019-05-13T03:34:14.937Z,5.40
2019-05-13T03:39:12.403Z,5.30
2019-05-13T03:44:13.112Z,5.20
2019-05-13T03:49:13.258Z,5.20
2019-05-13T03:54:06.284Z,5.20
2019-05-13T03:59:02.747Z,5.20
2019-05-13T04:03:56.066Z,5.20
2019-05-13T04:08:53.884Z,5.10
2019-05-13T04:13:47.520Z,5.10
2019-05-13T04:18:42.851Z,5.20
2019-05-13T04:23:36.856Z,5.30
2019-05-13T04:28:32.980Z,5.40
2019-05-13T04:33:26.488Z,5.50
2019-05-13T04:38:22.793Z,5.80
2019-05-13T04:43:16.121Z,6.20
2019-05-13T04:48:12.752Z,6.40
2019-05-13T04:53:05.736Z,6.70
2019-05-13T04:58:03.150Z,7.00
2019-05-13T05:03:22.796Z,7.40
2019-05-13T05:08:42.136Z,7.90
2019-05-13T05:14:34.604Z,10.00
2019-05-13T05:20:07.595Z,13.30
2019-05-13T05:25:23.128Z,15.60
2019-05-13T05:31:07.740Z,16.40
2019-05-13T05:36:34.186Z,16.80
2019-05-13T05:41:31.724Z,17.10
2019-05-13T05:46:26.055Z,18.10
2019-05-13T05:51:22.667Z,17.90
2019-05-13T05:56:17.460Z,17.90
2019-05-13T06:01:13.085Z,17.80
2019-05-13T06:06:07.217Z,17.60
2019-05-13T06:11:01.385Z,18.20
2019-05-13T06:15:55.588Z,18.70
2019-05-13T06:20:51.195Z,18.50
2019-05-13T06:25:45.355Z,19.10
2019-05-13T06:30:41.452Z,18.90
2019-05-13T06:35:35.089Z,19.80
2019-05-13T06:40:28.979Z,19.60
2019-05-13T06:45:22.914Z,19.80
2019-05-13T06:50:17.006Z,18.90
2019-05-13T06:55:11.671Z,19.10
2019-05-13T07:00:06.190Z,17.00
2019-05-13T07:05:02.365Z,16.30
2019-05-13T07:09:56.231Z,17.00
2019-05-13T07:14:51.848Z,18.10
2019-05-13T07:19:45.951Z,20.10
2019-05-13T07:24:41.472Z,21.10
2019-05-13T07:29:35.790Z,21.20
2019-05-13T07:34:32.965Z,22.40
2019-05-13T07:39:26.224Z,19.70
2019-05-13T07:44:22.211Z,20.40
2019-05-13T07:49:15.861Z,20.00
2019-05-13T07:54:11.354Z,20.50
2019-05-13T07:59:05.535Z,21.70
2019-05-13T08:04:01.982Z,21.00
2019-05-13T08:08:55.415Z,22.20
2019-05-13T08:13:51.740Z,22.10
2019-05-13T08:18:45.905Z,21.80
2019-05-13T08:23:43.515Z,22.70
2019-05-13T08:28:56.552Z,23.00
2019-05-13T08:33:34.974Z,23.50
2019-05-13T08:38:31.884Z,23.10
2019-05-13T08:43:25.719Z,21.80
2019-05-13T08:48:22.206Z,23.60
2019-05-13T08:53:15.336Z,24.40
2019-05-13T08:58:09.414Z,23.50
2019-05-13T09:03:06.185Z,24.10
2019-05-13T09:08:01.048Z,23.50
2019-05-13T09:12:55.176Z,23.00
2019-05-13T09:17:51.620Z,22.30
2019-05-13T09:22:45.007Z,24.00
2019-05-13T09:27:39.144Z,24.30
2019-05-13T09:32:33.216Z,24.30
2019-05-13T09:37:28.220Z,24.80
2019-05-13T09:42:22.114Z,23.50
2019-05-13T09:47:16.129Z,23.20
2019-05-13T09:52:11.954Z,22.90
2019-05-13T09:57:05.525Z,21.70
2019-05-13T10:02:02.525Z,21.10
2019-05-13T10:06:55.146Z,21.50
2019-05-13T10:11:51.751Z,21.50
2019-05-13T10:16:44.966Z,20.40
2019-05-13T10:21:38.786Z,19.40
2019-05-13T10:26:32.756Z,18.30
2019-05-13T10:31:26.752Z,17.70
2019-05-13T10:36:22.292Z,17.20
2019-05-13T10:41:16.562Z,17.20
2019-05-13T10:46:12.789Z,17.20
2019-05-13T10:51:07.879Z,17.00
2019-05-13T10:56:03.094Z,16.60
2019-05-13T11:00:57.951Z,16.60
2019-05-13T11:05:52.998Z,16.90
2019-05-13T11:10:52.796Z,16.90
2019-05-13T11:15:46.145Z,16.30
2019-05-13T11:20:42.138Z,16.50
2019-05-13T11:25:36.030Z,16.10
2019-05-13T11:30:31.933Z,16.30
2019-05-13T11:35:25.852Z,16.50
2019-05-13T11:40:22.496Z,16.80
2019-05-13T11:45:16.598Z,16.30
2019-05-13T11:50:11.748Z,16.50
2019-05-13T11:55:07.982Z,16.50
2019-05-13T12:00:04.339Z,16.80
2019-05-13T12:05:00.176Z,16.50
2019-05-13T12:09:54.542Z,16.30
2019-05-13T12:15:20.266Z,16.40
2019-05-13T12:19:44.355Z,16.60
2019-05-13T12:24:41.317Z,16.90
2019-05-13T12:29:35.725Z,16.30
2019-05-13T12:34:39.510Z,16.70
2019-05-13T12:39:27.601Z,17.00
2019-05-13T12:44:23.315Z,17.00
2019-05-13T12:49:17.648Z,17.30
2019-05-13T12:54:13.534Z,16.80
2019-05-13T12:59:07.447Z,16.90
2019-05-13T13:04:03.717Z,17.20
2019-05-13T13:08:57.916Z,17.40
2019-05-13T13:13:58.982Z,17.60
2019-05-13T13:18:47.627Z,17.30
2019-05-13T13:23:42.761Z,17.10
2019-05-13T13:28:36.939Z,16.80
2019-05-13T13:33:34.146Z,17.30
2019-05-13T13:38:26.678Z,17.50
2019-05-13T13:43:24.592Z,17.50
2019-05-13T13:48:16.902Z,17.40
2019-05-13T13:53:14.124Z,17.40
2019-05-13T13:58:06.297Z,17.40
2019-05-13T14:03:06.033Z,17.50
2019-05-13T14:07:56.526Z,17.60
2019-05-13T14:12:52.451Z,17.60
2019-05-13T14:17:46.404Z,17.60
2019-05-13T14:22:41.932Z,17.60
2019-05-13T14:27:36.151Z,17.60
2019-05-13T14:32:32.107Z,17.70
2019-05-13T14:37:26.217Z,17.70
2019-05-13T14:42:22.785Z,17.90
2019-05-13T14:47:15.952Z,17.90
2019-05-13T14:52:11.976Z,18.30
2019-05-13T14:57:06.332Z,18.10
2019-05-13T15:02:01.500Z,18.10
2019-05-13T15:06:55.507Z,18.20
2019-05-13T15:11:52.528Z,18.10
2019-05-13T15:17:00.598Z,18.00
2019-05-13T15:21:41.699Z,17.90
2019-05-13T15:26:35.860Z,17.90
2019-05-13T15:31:31.630Z,18.00
2019-05-13T15:36:25.692Z,18.20
2019-05-13T15:41:19.879Z,17.70
2019-05-13T15:46:14.137Z,17.90
2019-05-13T15:51:08.226Z,17.80
2019-05-13T15:56:02.916Z,17.70
2019-05-13T16:00:57.300Z,17.70
2019-05-13T16:05:51.783Z,17.70
2019-05-13T16:10:45.603Z,17.70
2019-05-13T16:15:41.651Z,17.80
2019-05-13T16:20:35.686Z,17.70
2019-05-13T16:25:31.804Z,17.40
2019-05-13T16:30:25.614Z,17.20
2019-05-13T16:35:22.296Z,17.10
2019-05-13T16:40:17.109Z,17.00
2019-05-13T16:45:12.583Z,17.00
2019-05-13T16:50:11.669Z,16.90
2019-05-13T16:55:06.259Z,16.90
2019-05-13T17:00:02.407Z,16.80
2019-05-13T17:04:57.108Z,16.70
2019-05-13T17:09:52.161Z,16.70
2019-05-13T17:14:46.292Z,16.50
2019-05-13T17:19:44.348Z,16.40
2019-05-13T17:24:38.539Z,16.50
2019-05-13T17:29:32.431Z,16.30
2019-05-13T17:34:26.430Z,16.30
2019-05-13T17:39:21.320Z,16.20
2019-05-13T17:44:16.383Z,16.00
2019-05-13T17:49:11.832Z,15.90
2019-05-13T17:54:05.945Z,15.80
2019-05-13T17:58:59.897Z,15.70
2019-05-13T18:03:53.929Z,15.50
2019-05-13T18:08:47.941Z,15.40
2019-05-13T18:13:43.726Z,15.40
2019-05-13T18:18:44.129Z,15.30
2019-05-13T18:23:33.313Z,15.10
2019-05-13T18:28:31.457Z,15.00
2019-05-13T18:33:24.552Z,14.90
2019-05-13T18:38:18.530Z,14.80
2019-05-13T18:43:13.529Z,14.80
2019-05-13T18:48:07.318Z,14.60
2019-05-13T18:53:01.914Z,14.40
2019-05-13T18:57:55.930Z,14.30
2019-05-13T19:02:49.906Z,14.10
2019-05-13T19:07:43.897Z,14.00
2019-05-13T19:12:37.827Z,13.80
2019-05-13T19:17:32.335Z,13.50
2019-05-13T19:22:26.508Z,13.40
2019-05-13T19:27:21.590Z,13.30
2019-05-13T19:32:15.809Z,13.20
2019-05-13T19:37:11.511Z,13.00
2019-05-13T19:42:05.662Z,12.90
2019-05-13T19:47:01.969Z,12.80
2019-05-13T19:51:55.449Z,12.70
2019-05-13T19:56:51.859Z,12.70
2019-05-13T20:01:45.007Z,12.60
2019-05-13T20:06:41.274Z,12.50
2019-05-13T20:11:34.719Z,12.50
2019-05-13T20:16:28.612Z,12.60
2019-05-13T20:21:22.415Z,12.50
2019-05-13T20:26:16.381Z,12.30
2019-05-13T20:31:11.111Z,12.20
2019-05-13T20:36:05.198Z,12.10
2019-05-13T20:41:01.361Z,11.90
2019-05-13T20:45:54.917Z,11.90
2019-05-13T20:50:51.791Z,11.70
2019-05-13T20:55:44.930Z,11.70
2019-05-13T21:00:42.192Z,11.60
2019-05-13T21:05:36.760Z,11.60
2019-05-13T21:10:31.479Z,11.60
2019-05-13T21:15:25.395Z,11.60
2019-05-13T21:20:25.049Z,11.40
2019-05-13T21:25:15.960Z,11.30
2019-05-13T21:30:11.973Z,11.20
2019-05-13T21:35:05.983Z,11.10
2019-05-13T21:39:59.870Z,11.10
2019-05-13T21:44:53.773Z,11.10
2019-05-13T21:49:47.663Z,11.00
2019-05-13T21:54:42.194Z,11.00
2019-05-13T21:59:38.455Z,10.90
2019-05-13T22:04:32.791Z,10.90
2019-05-13T22:09:26.895Z,10.80
2019-05-13T22:14:21.029Z,10.70
2019-05-13T22:19:15.017Z,10.60
2019-05-13T22:24:08.900Z,10.50
2019-05-13T22:29:02.989Z,10.40
2019-05-13T22:33:57.089Z,10.30
2019-05-13T22:38:51.641Z,10.30
2019-05-13T22:43:55.656Z,10.40
2019-05-13T22:48:42.004Z,10.50
2019-05-13T22:53:36.240Z,10.30
2019-05-13T22:58:32.046Z,10.40
2019-05-13T23:03:25.942Z,10.40
2019-05-13T23:08:21.647Z,10.40
2019-05-13T23:13:15.337Z,10.40
2019-05-13T23:18:11.584Z,10.20
2019-05-13T23:23:04.972Z,10.10
2019-05-13T23:27:58.974Z,10.20
2019-05-13T23:32:53.055Z,9.90
2019-05-13T23:37:47.104Z,9.90
2019-05-13T23:42:41.145Z,9.80
2019-05-13T23:47:35.543Z,9.80
2019-05-13T23:52:31.201Z,9.60
2019-05-13T23:57:25.154Z,9.50
